PWSweather.com
Personal Weather Stations
Station Observations
TARRYHILL
Tarrytown, NY 10591

Tarrytown, NY 10591

Lat: 41.05185, Lon: -73.85296

Elevation: 341

Station Type: Davis Vantage Vue

www.tarrytownnyweather.com

High Low Average
Temperature 51.2°F10.7°C 26.9°F-2.8°C 39.3°F4.1°C
Dew Point 49.3°F9.6°C 20.7°F-6.3°C 33.1°F0.6°C
Winds 5.8 mph 9.3 kmh Calm Calm 1.0 mph S1.6 kmh S
Wind Gusts 11.5 mph18.5 kmh -- 2.0 mph3.2 kmh
Humidity 94% 60% 79%
Pressure 30.08 in1018.6 mb 29.43 in996.6 mb -
Precipitation 0.24 in6.1 mm - -
Hour Temp Dew Point Humidity Winds Wind Gusts Pressure Precip Precip Rate Daily Precip Total
12:00 AM 29.5°F-1.4°C 21.9°F-5.6°C 73% Calm Calm -- 30.08 in1018.6 mb - 0.00 in0.0 mm 0.00 in0.0 mm
12:15 AM 30.6°F-0.8°C 22.6°F-5.2°C 72% Calm Calm -- 30.08 in1018.6 mb - 0.00 in0.0 mm 0.00 in0.0 mm
12:30 AM 31.5°F-0.3°C 21.8°F-5.7°C 67% Calm Calm 1.2 mph1.9 kmh 30.07 in1018.3 mb - 0.00 in0.0 mm 0.00 in0.0 mm
12:45 AM 31.9°F-0.1°C 21.8°F-5.7°C 66% Calm Calm -- 30.07 in1018.3 mb - 0.00 in0.0 mm 0.00 in0.0 mm
01:00 AM 32.1°F0.1°C 22.4°F-5.3°C 67% Calm Calm 1.2 mph1.9 kmh 30.06 in1017.9 mb - 0.00 in0.0 mm 0.00 in0.0 mm
01:15 AM 31.0°F-0.6°C 22.0°F-5.6°C 69% Calm Calm -- 30.06 in1017.9 mb - 0.00 in0.0 mm 0.00 in0.0 mm
01:30 AM 30.1°F-1.1°C 22.2°F-5.4°C 72% Calm Calm -- 30.05 in1017.6 mb - 0.00 in0.0 mm 0.00 in0.0 mm
01:45 AM 29.4°F-1.4°C 21.8°F-5.7°C 73% Calm Calm -- 30.05 in1017.6 mb - 0.00 in0.0 mm 0.00 in0.0 mm
02:00 AM 28.6°F-1.9°C 22.0°F-5.6°C 76% Calm Calm -- 30.05 in1017.6 mb - 0.00 in0.0 mm 0.00 in0.0 mm
02:15 AM 28.1°F-2.2°C 22.4°F-5.3°C 79% Calm Calm -- 30.07 in1018.3 mb - 0.00 in0.0 mm 0.00 in0.0 mm
02:30 AM 27.8°F-2.3°C 22.4°F-5.3°C 80% Calm Calm -- 30.06 in1017.9 mb - 0.00 in0.0 mm 0.00 in0.0 mm
02:45 AM 29.8°F-1.2°C 23.2°F-4.9°C 76% Calm Calm -- 30.03 in1016.9 mb - 0.00 in0.0 mm 0.00 in0.0 mm
03:00 AM 29.7°F-1.3°C 22.7°F-5.2°C 75% Calm Calm -- 30.03 in1016.9 mb - 0.00 in0.0 mm 0.00 in0.0 mm
03:15 AM 29.3°F-1.5°C 22.4°F-5.3°C 75% Calm Calm -- 30.03 in1016.9 mb - 0.00 in0.0 mm 0.00 in0.0 mm
03:30 AM 28.7°F-1.8°C 21.7°F-5.7°C 75% Calm Calm -- 30.03 in1016.9 mb - 0.00 in0.0 mm 0.00 in0.0 mm
03:45 AM 28.1°F-2.2°C 22.1°F-5.5°C 78% Calm Calm -- 30.03 in1016.9 mb - 0.00 in0.0 mm 0.00 in0.0 mm
04:00 AM 28.5°F-1.9°C 22.2°F-5.4°C 77% Calm Calm -- 30.02 in1016.6 mb - 0.00 in0.0 mm 0.00 in0.0 mm
04:15 AM 28.5°F-1.9°C 21.3°F-5.9°C 74% Calm Calm -- 30.02 in1016.6 mb - 0.00 in0.0 mm 0.00 in0.0 mm
04:30 AM 26.9°F-2.8°C 20.7°F-6.3°C 77% Calm Calm -- 30.03 in1016.9 mb - 0.00 in0.0 mm 0.00 in0.0 mm
04:45 AM 28.1°F-2.2°C 21.6°F-5.8°C 76% Calm Calm 1.2 mph1.9 kmh 30.02 in1016.6 mb - 0.00 in0.0 mm 0.00 in0.0 mm
05:00 AM 28.1°F-2.2°C 21.5°F-5.8°C 76% Calm Calm -- 30.02 in1016.6 mb - 0.00 in0.0 mm 0.00 in0.0 mm
05:15 AM 27.7°F-2.4°C 22.4°F-5.3°C 80% Calm Calm -- 30.02 in1016.6 mb - 0.00 in0.0 mm 0.00 in0.0 mm
05:30 AM 28.3°F-2.1°C 22.4°F-5.3°C 78% Calm Calm -- 30.02 in1016.6 mb - 0.00 in0.0 mm 0.00 in0.0 mm
05:45 AM 27.6°F-2.4°C 21.9°F-5.6°C 79% Calm Calm -- 30.02 in1016.6 mb - 0.00 in0.0 mm 0.00 in0.0 mm
06:00 AM 28.6°F-1.9°C 22.9°F-5.1°C 79% Calm Calm -- 30.01 in1016.3 mb - 0.00 in0.0 mm 0.00 in0.0 mm
06:15 AM 28.9°F-1.7°C 22.6°F-5.2°C 77% Calm Calm -- 30.00 in1015.9 mb - 0.00 in0.0 mm 0.00 in0.0 mm
06:30 AM 28.2°F-2.1°C 21.9°F-5.6°C 77% Calm Calm -- 30.00 in1015.9 mb - 0.00 in0.0 mm 0.00 in0.0 mm
06:45 AM 28.1°F-2.2°C 22.7°F-5.2°C 80% Calm Calm -- 30.00 in1015.9 mb - 0.00 in0.0 mm 0.00 in0.0 mm
07:00 AM 28.2°F-2.1°C 22.6°F-5.2°C 79% Calm Calm -- 30.00 in1015.9 mb - 0.00 in0.0 mm 0.00 in0.0 mm
07:15 AM 30.0°F-1.1°C 23.7°F-4.6°C 77% Calm Calm -- 30.00 in1015.9 mb - 0.00 in0.0 mm 0.00 in0.0 mm
07:30 AM 30.0°F-1.1°C 24.0°F-4.4°C 78% Calm Calm -- 30.00 in1015.9 mb - 0.00 in0.0 mm 0.00 in0.0 mm
07:45 AM 30.8°F-0.7°C 24.5°F-4.2°C 77% Calm Calm -- 29.99 in1015.6 mb - 0.00 in0.0 mm 0.00 in0.0 mm
08:00 AM 31.4°F-0.3°C 25.3°F-3.7°C 78% Calm Calm -- 29.98 in1015.2 mb - 0.00 in0.0 mm 0.00 in0.0 mm
08:15 AM 32.4°F0.2°C 25.4°F-3.7°C 75% Calm Calm -- 29.97 in1014.9 mb - 0.00 in0.0 mm 0.00 in0.0 mm
08:30 AM 33.3°F0.7°C 26.2°F-3.2°C 75% Calm Calm -- 29.96 in1014.6 mb - 0.00 in0.0 mm 0.00 in0.0 mm
08:45 AM 34.6°F1.4°C 26.2°F-3.2°C 71% Calm Calm 1.2 mph1.9 kmh 29.97 in1014.9 mb - 0.00 in0.0 mm 0.00 in0.0 mm
09:00 AM 34.7°F1.5°C 25.9°F-3.4°C 70% Calm Calm -- 29.97 in1014.9 mb - 0.00 in0.0 mm 0.00 in0.0 mm
09:15 AM 35.1°F1.7°C 27.3°F-2.6°C 73% Calm Calm -- 29.95 in1014.2 mb - 0.00 in0.0 mm 0.00 in0.0 mm
09:30 AM 35.4°F1.9°C 27.9°F-2.3°C 74% Calm Calm -- 29.95 in1014.2 mb - 0.00 in0.0 mm 0.00 in0.0 mm
09:45 AM 35.6°F2.0°C 28.5°F-1.9°C 75% Calm Calm 1.2 mph1.9 kmh 29.95 in1014.2 mb - 0.00 in0.0 mm 0.00 in0.0 mm
10:00 AM 35.5°F1.9°C 27.7°F-2.4°C 73% Calm Calm -- 29.95 in1014.2 mb - 0.00 in0.0 mm 0.00 in0.0 mm
10:15 AM 35.8°F2.1°C 27.7°F-2.4°C 72% Calm Calm -- 29.93 in1013.5 mb - 0.00 in0.0 mm 0.00 in0.0 mm
10:30 AM 36.6°F2.6°C 29.1°F-1.6°C 74% Calm Calm -- 29.92 in1013.2 mb - 0.00 in0.0 mm 0.00 in0.0 mm
10:45 AM 39.6°F4.2°C 30.6°F-0.8°C 70% 1.2 mph SW1.9 kmh SW 2.3 mph3.7 kmh 29.91 in1012.9 mb - 0.00 in0.0 mm 0.00 in0.0 mm
11:00 AM 41.9°F5.5°C 32.1°F0.1°C 68% 1.2 mph SSE1.9 kmh SSE 3.5 mph5.6 kmh 29.89 in1012.2 mb - 0.00 in0.0 mm 0.00 in0.0 mm
11:15 AM 43.5°F6.4°C 32.9°F0.5°C 66% 2.3 mph S3.7 kmh S 4.6 mph7.4 kmh 29.87 in1011.5 mb - 0.00 in0.0 mm 0.00 in0.0 mm
11:30 AM 44.0°F6.7°C 33.3°F0.7°C 66% 3.5 mph S5.6 kmh S 6.9 mph11.1 kmh 29.86 in1011.2 mb - 0.00 in0.0 mm 0.00 in0.0 mm
11:45 AM 45.0°F7.2°C 33.6°F0.9°C 64% 3.5 mph SW5.6 kmh SW 6.9 mph11.1 kmh 29.84 in1010.5 mb - 0.00 in0.0 mm 0.00 in0.0 mm
12:00 PM 45.8°F7.7°C 33.5°F0.8°C 62% 1.2 mph S1.9 kmh S 3.5 mph5.6 kmh 29.84 in1010.5 mb - 0.00 in0.0 mm 0.00 in0.0 mm
12:15 PM 46.3°F7.9°C 33.6°F0.9°C 61% 1.2 mph SSW1.9 kmh SSW 2.3 mph3.7 kmh 29.82 in1009.8 mb - 0.00 in0.0 mm 0.00 in0.0 mm
12:30 PM 46.6°F8.1°C 33.9°F1.1°C 61% 2.3 mph SW3.7 kmh SW 3.5 mph5.6 kmh 29.81 in1009.5 mb - 0.00 in0.0 mm 0.00 in0.0 mm
12:45 PM 47.2°F8.4°C 34.0°F1.1°C 60% 3.5 mph SSE5.6 kmh SSE 5.8 mph9.3 kmh 29.79 in1008.8 mb - 0.00 in0.0 mm 0.00 in0.0 mm
01:00 PM 47.2°F8.4°C 34.0°F1.1°C 60% 2.3 mph S3.7 kmh S 6.9 mph11.1 kmh 29.78 in1008.5 mb - 0.00 in0.0 mm 0.00 in0.0 mm
01:15 PM 47.2°F8.4°C 34.4°F1.3°C 61% 2.3 mph WSW3.7 kmh WSW 3.5 mph5.6 kmh 29.77 in1008.1 mb - 0.00 in0.0 mm 0.00 in0.0 mm
01:30 PM 47.2°F8.4°C 35.6°F2.0°C 64% 1.2 mph ESE1.9 kmh ESE 3.5 mph5.6 kmh 29.75 in1007.5 mb - 0.00 in0.0 mm 0.00 in0.0 mm
01:45 PM 47.3°F8.5°C 36.1°F2.3°C 65% 2.3 mph SW3.7 kmh SW 6.9 mph11.1 kmh 29.74 in1007.1 mb - 0.00 in0.0 mm 0.00 in0.0 mm
02:00 PM 47.5°F8.6°C 37.8°F3.2°C 69% 2.3 mph SW3.7 kmh SW 4.6 mph7.4 kmh 29.72 in1006.4 mb - 0.00 in0.0 mm 0.00 in0.0 mm
02:15 PM 47.9°F8.8°C 38.9°F3.8°C 71% 2.3 mph S3.7 kmh S 4.6 mph7.4 kmh 29.71 in1006.1 mb - 0.00 in0.0 mm 0.00 in0.0 mm
02:30 PM 48.2°F9.0°C 39.2°F4.0°C 71% 2.3 mph SW3.7 kmh SW 8.1 mph13.0 kmh 29.70 in1005.8 mb - 0.00 in0.0 mm 0.00 in0.0 mm
02:45 PM 48.1°F8.9°C 40.2°F4.6°C 74% 1.2 mph SW1.9 kmh SW 3.5 mph5.6 kmh 29.71 in1006.1 mb - 0.00 in0.0 mm 0.00 in0.0 mm
03:00 PM 47.7°F8.7°C 41.2°F5.1°C 78% 1.2 mph S1.9 kmh S 3.5 mph5.6 kmh 29.71 in1006.1 mb - 0.01 in0.3 mm 0.01 in0.3 mm
03:15 PM 46.9°F8.3°C 41.7°F5.4°C 82% Calm Calm -- 29.70 in1005.8 mb - 0.01 in0.3 mm 0.02 in0.5 mm
03:30 PM 46.3°F7.9°C 41.7°F5.4°C 84% Calm Calm 1.2 mph1.9 kmh 29.70 in1005.8 mb - 0.02 in0.5 mm 0.04 in1.0 mm
03:45 PM 45.9°F7.7°C 41.9°F5.5°C 86% Calm Calm 2.3 mph3.7 kmh 29.69 in1005.4 mb - 0.01 in0.3 mm 0.05 in1.3 mm
04:00 PM 45.6°F7.6°C 42.0°F5.6°C 87% 1.2 mph SSE1.9 kmh SSE 1.2 mph1.9 kmh 29.69 in1005.4 mb - 0.00 in0.0 mm 0.05 in1.3 mm
04:15 PM 45.7°F7.6°C 42.1°F5.6°C 87% 1.2 mph SSW1.9 kmh SSW 3.5 mph5.6 kmh 29.69 in1005.4 mb - 0.01 in0.3 mm 0.06 in1.5 mm
04:30 PM 45.7°F7.6°C 42.1°F5.6°C 87% Calm Calm 1.2 mph1.9 kmh 29.68 in1005.1 mb - 0.00 in0.0 mm 0.06 in1.5 mm
04:45 PM 45.6°F7.6°C 42.0°F5.6°C 87% Calm Calm 3.5 mph5.6 kmh 29.67 in1004.7 mb - 0.02 in0.5 mm 0.08 in2.0 mm
05:00 PM 45.5°F7.5°C 41.9°F5.5°C 87% 1.2 mph S1.9 kmh S 3.5 mph5.6 kmh 29.66 in1004.4 mb - 0.03 in0.8 mm 0.10 in2.5 mm
05:15 PM 45.3°F7.4°C 42.0°F5.6°C 88% Calm Calm -- 29.66 in1004.4 mb - 0.03 in0.8 mm 0.12 in3.0 mm
05:30 PM 45.1°F7.3°C 42.0°F5.6°C 89% Calm Calm -- 29.66 in1004.4 mb - 0.03 in0.8 mm 0.15 in3.8 mm
05:45 PM 44.8°F7.1°C 42.0°F5.6°C 90% Calm Calm -- 29.66 in1004.4 mb - 0.01 in0.3 mm 0.16 in4.1 mm
06:00 PM 44.7°F7.1°C 42.3°F5.7°C 91% Calm Calm -- 29.65 in1004.1 mb - 0.02 in0.5 mm 0.18 in4.6 mm
06:15 PM 44.8°F7.1°C 42.3°F5.7°C 91% Calm Calm -- 29.65 in1004.1 mb - 0.01 in0.3 mm 0.19 in4.8 mm
06:30 PM 44.8°F7.1°C 42.6°F5.9°C 92% Calm Calm -- 29.64 in1003.7 mb - 0.01 in0.3 mm 0.20 in5.1 mm
06:45 PM 44.9°F7.2°C 42.7°F5.9°C 92% Calm Calm -- 29.63 in1003.4 mb - 0.00 in0.0 mm 0.20 in5.1 mm
07:00 PM 45.1°F7.3°C 43.2°F6.2°C 93% 1.2 mph S1.9 kmh S 2.3 mph3.7 kmh 29.62 in1003.0 mb - 0.00 in0.0 mm 0.20 in5.1 mm
07:15 PM 45.6°F7.6°C 43.4°F6.3°C 92% 1.2 mph SSW1.9 kmh SSW 2.3 mph3.7 kmh 29.62 in1003.0 mb - 0.00 in0.0 mm 0.20 in5.1 mm
07:30 PM 46.1°F7.8°C 43.9°F6.6°C 92% 4.6 mph SSW7.4 kmh SSW 8.1 mph13.0 kmh 29.61 in1002.7 mb - 0.00 in0.0 mm 0.20 in5.1 mm
07:45 PM 46.5°F8.1°C 43.7°F6.5°C 90% 4.6 mph SSW7.4 kmh SSW 11.5 mph18.5 kmh 29.60 in1002.4 mb - 0.00 in0.0 mm 0.20 in5.1 mm
08:00 PM 47.0°F8.3°C 44.0°F6.7°C 89% 5.8 mph S9.3 kmh S 8.1 mph13.0 kmh 29.60 in1002.4 mb - 0.00 in0.0 mm 0.20 in5.1 mm
08:15 PM 47.6°F8.7°C 44.2°F6.8°C 88% 3.5 mph SSW5.6 kmh SSW 4.6 mph7.4 kmh 29.59 in1002.0 mb - 0.00 in0.0 mm 0.20 in5.1 mm
08:30 PM 47.6°F8.7°C 44.2°F6.8°C 88% 3.5 mph SW5.6 kmh SW 11.5 mph18.5 kmh 29.57 in1001.4 mb - 0.01 in0.3 mm 0.21 in5.3 mm
08:45 PM 47.9°F8.8°C 44.2°F6.8°C 87% 5.8 mph SW9.3 kmh SW 6.9 mph11.1 kmh 29.57 in1001.4 mb - 0.00 in0.0 mm 0.21 in5.3 mm
09:00 PM 48.2°F9.0°C 44.2°F6.8°C 86% 2.3 mph S3.7 kmh S 2.3 mph3.7 kmh 29.55 in1000.7 mb - 0.00 in0.0 mm 0.21 in5.3 mm
09:15 PM 47.6°F8.7°C 44.2°F6.8°C 88% Calm Calm 1.2 mph1.9 kmh 29.53 in1000.0 mb - 0.01 in0.3 mm 0.22 in5.6 mm
09:30 PM 47.3°F8.5°C 44.8°F7.1°C 91% 1.2 mph SW1.9 kmh SW 1.2 mph1.9 kmh 29.54 in1000.3 mb - 0.03 in0.8 mm 0.24 in6.1 mm
09:45 PM 47.3°F8.5°C 44.8°F7.1°C 91% Calm Calm -- 29.53 in1000.0 mb - 0.00 in0.0 mm 0.24 in6.1 mm
10:00 PM 47.2°F8.4°C 44.7°F7.1°C 91% Calm Calm -- 29.52 in999.7 mb - 0.00 in0.0 mm 0.24 in6.1 mm
10:15 PM 47.1°F8.4°C 44.9°F7.2°C 92% Calm Calm -- 29.50 in999.0 mb - 0.00 in0.0 mm 0.24 in6.1 mm
10:30 PM 47.3°F8.5°C 45.4°F7.4°C 93% Calm Calm 3.5 mph5.6 kmh 29.48 in998.3 mb - 0.00 in0.0 mm 0.24 in6.1 mm
10:45 PM 48.0°F8.9°C 46.1°F7.8°C 93% 2.3 mph SSW3.7 kmh SSW 4.6 mph7.4 kmh 29.47 in998.0 mb - 0.00 in0.0 mm 0.24 in6.1 mm
11:00 PM 48.9°F9.4°C 46.9°F8.3°C 93% 1.2 mph S1.9 kmh S 4.6 mph7.4 kmh 29.46 in997.6 mb - 0.00 in0.0 mm 0.24 in6.1 mm
11:15 PM 49.7°F9.8°C 48.0°F8.9°C 94% 2.3 mph S3.7 kmh S 5.8 mph9.3 kmh 29.45 in997.3 mb - 0.00 in0.0 mm 0.24 in6.1 mm
11:30 PM 50.6°F10.3°C 48.7°F9.3°C 93% 2.3 mph S3.7 kmh S 8.1 mph13.0 kmh 29.44 in997.0 mb - 0.00 in0.0 mm 0.24 in6.1 mm
11:45 PM 51.2°F10.7°C 49.3°F9.6°C 93% 3.5 mph S5.6 kmh S 8.1 mph13.0 kmh 29.43 in996.6 mb - 0.00 in0.0 mm 0.24 in6.1 mm